Warnow Moon — A8VX3 — position and weather

sailwx.info

Track history (hours):
 
Tides and Currents Weather Stations Pressure Air Temp Water Temp Dewpoint Dewpoint Depression Visibility Wind Speed Wind Dir Waves Ship Positions

Warnow Moon

Last reported at 2017-Aug-14 13:48 UTC. Time now 2017-Aug-16 21:35 UTC.
Position N 22°49' E 119°59'.

Length 180 m; draft 7.3 m.

Type: Cargo ship. MMSI: 636016909.

Date/timePositionNaut miles runAvg speedWind from/ knotsBaromVisibWave heightAir tempDewpointWater temp
2017-Aug-14 13:48N 22°49' E 119°59'3 8.8
2017-Aug-14 13:30N 22°47' E 120°01'4 8.7
2017-Aug-14 13:00N 22°45' E 120°05'4 8.6
2017-Aug-14 12:30N 22°41' E 120°08'4 8.6
2017-Aug-14 12:00N 22°39' E 120°12'4 8.6
2017-Aug-14 11:30N 22°37' E 120°16'2 0.2
2017-Aug-14 03:37N 22°36' E 120°18'0 0.0
2017-Aug-14 03:19N 22°36' E 120°18'0 0.0
2017-Aug-14 02:49N 22°36' E 120°18'0 0.0
2017-Aug-14 02:28N 22°36' E 120°18'0 0.0
2017-Aug-14 01:58N 22°36' E 120°18'0 0.0
2017-Aug-13 14:55N 22°36' E 120°18'0 0.0
2017-Aug-13 14:16N 22°36' E 120°18'0 0.0
2017-Aug-13 12:52N 22°36' E 120°18'0 0.0
2017-Aug-13 12:25N 22°36' E 120°18'0 0.0
2017-Aug-13 11:34N 22°36' E 120°18'0 0.0
2017-Aug-13 05:16N 22°36' E 120°18'0 0.0
2017-Aug-13 04:49N 22°36' E 120°18'0 0.0
2017-Aug-13 04:25N 22°36' E 120°18'0 0.0
2017-Aug-13 03:40N 22°36' E 120°18'0 0.0
2017-Aug-13 03:16N 22°36' E 120°18'0 0.0
2017-Aug-13 02:55N 22°36' E 120°18'0 0.0
2017-Aug-13 02:16N 22°36' E 120°18'0 0.0
2017-Aug-13 01:55N 22°36' E 120°18'0 0.0
2017-Aug-13 01:28N 22°36' E 120°18'0 0.0
2017-Aug-13 00:43N 22°36' E 120°18'0 0.0
2017-Aug-13 00:25N 22°36' E 120°18'0 0.0
2017-Aug-12 23:58N 22°36' E 120°18'0 0.0
2017-Aug-12 23:13N 22°36' E 120°18'0 0.0
2017-Aug-12 22:10N 22°36' E 120°18'0 0.0
2017-Aug-12 21:46N 22°36' E 120°18'0 0.0
2017-Aug-12 21:25N 22°36' E 120°18'0 0.0
2017-Aug-12 20:46N 22°36' E 120°18'0 0.0
2017-Aug-12 13:49N 22°36' E 120°18'0 0.0
2017-Aug-12 11:28N 22°36' E 120°18'0 0.0
2017-Aug-12 08:52N 22°36' E 120°18'0 0.0
2017-Aug-12 08:28N 22°36' E 120°18'0 0.0
2017-Aug-12 07:55N 22°36' E 120°18'0 0.0
2017-Aug-12 07:16N 22°36' E 120°18'0 0.0
2017-Aug-12 06:59N 22°36' E 120°18'0 0.5
2017-Aug-12 06:30N 22°36' E 120°18'4 7.1
2017-Aug-12 06:00N 22°37' E 120°14'3 6.2
2017-Aug-12 05:30N 22°37' E 120°11'3 5.2
2017-Aug-12 05:00N 22°35' E 120°09'4 8.9
2017-Aug-12 04:30N 22°32' E 120°12'4 8.9
2017-Aug-12 04:00N 22°28' E 120°14'510.4
2017-Aug-12 03:30N 22°23' E 120°15'612.4
2017-Aug-12 02:59N 22°16' E 120°17'  
Track history (hours):
 
Tides and Currents Weather Stations Pressure Air Temp Water Temp Dewpoint Dewpoint Depression Visibility Wind Speed Wind Dir Waves Ship Positions

Warnow Moon

Last reported at 2017-Aug-14 13:48 UTC. Time now 2017-Aug-16 21:35 UTC.
Position N 22°49' E 119°59'.

Length 180 m; draft 7.3 m.

Type: Cargo ship. MMSI: 636016909.

Date/timePositionNaut miles runAvg speedWind from/ knotsBaromVisibWave heightAir tempDewpointWater temp
2017-Aug-14 13:48N 22°49' E 119°59'3 8.8
2017-Aug-14 13:30N 22°47' E 120°01'4 8.7
2017-Aug-14 13:00N 22°45' E 120°05'4 8.6
2017-Aug-14 12:30N 22°41' E 120°08'4 8.6
2017-Aug-14 12:00N 22°39' E 120°12'4 8.6
2017-Aug-14 11:30N 22°37' E 120°16'2 0.2
2017-Aug-14 03:37N 22°36' E 120°18'0 0.0
2017-Aug-14 03:19N 22°36' E 120°18'0 0.0
2017-Aug-14 02:49N 22°36' E 120°18'0 0.0
2017-Aug-14 02:28N 22°36' E 120°18'0 0.0
2017-Aug-14 01:58N 22°36' E 120°18'0 0.0
2017-Aug-13 14:55N 22°36' E 120°18'0 0.0
2017-Aug-13 14:16N 22°36' E 120°18'0 0.0
2017-Aug-13 12:52N 22°36' E 120°18'0 0.0
2017-Aug-13 12:25N 22°36' E 120°18'0 0.0
2017-Aug-13 11:34N 22°36' E 120°18'0 0.0
2017-Aug-13 05:16N 22°36' E 120°18'0 0.0
2017-Aug-13 04:49N 22°36' E 120°18'0 0.0
2017-Aug-13 04:25N 22°36' E 120°18'0 0.0
2017-Aug-13 03:40N 22°36' E 120°18'0 0.0
2017-Aug-13 03:16N 22°36' E 120°18'0 0.0
2017-Aug-13 02:55N 22°36' E 120°18'0 0.0
2017-Aug-13 02:16N 22°36' E 120°18'0 0.0
2017-Aug-13 01:55N 22°36' E 120°18'0 0.0
2017-Aug-13 01:28N 22°36' E 120°18'0 0.0
2017-Aug-13 00:43N 22°36' E 120°18'0 0.0
2017-Aug-13 00:25N 22°36' E 120°18'0 0.0
2017-Aug-12 23:58N 22°36' E 120°18'0 0.0
2017-Aug-12 23:13N 22°36' E 120°18'0 0.0
2017-Aug-12 22:10N 22°36' E 120°18'0 0.0
2017-Aug-12 21:46N 22°36' E 120°18'0 0.0
2017-Aug-12 21:25N 22°36' E 120°18'0 0.0
2017-Aug-12 20:46N 22°36' E 120°18'0 0.0
2017-Aug-12 13:49N 22°36' E 120°18'0 0.0
2017-Aug-12 11:28N 22°36' E 120°18'0 0.0
2017-Aug-12 08:52N 22°36' E 120°18'0 0.0
2017-Aug-12 08:28N 22°36' E 120°18'0 0.0
2017-Aug-12 07:55N 22°36' E 120°18'0 0.0
2017-Aug-12 07:16N 22°36' E 120°18'0 0.0
2017-Aug-12 06:59N 22°36' E 120°18'0 0.5
2017-Aug-12 06:30N 22°36' E 120°18'4 7.1
2017-Aug-12 06:00N 22°37' E 120°14'3 6.2
2017-Aug-12 05:30N 22°37' E 120°11'3 5.2
2017-Aug-12 05:00N 22°35' E 120°09'4 8.9
2017-Aug-12 04:30N 22°32' E 120°12'4 8.9
2017-Aug-12 04:00N 22°28' E 120°14'510.4
2017-Aug-12 03:30N 22°23' E 120°15'612.4
2017-Aug-12 02:59N 22°16' E 120°17'  

Dump ship's entire track history